Impacts METAR Board INFO
IDs:

KCLE - Cleveland/Hopkins In, OH, US

Updated at: 1510 UTC 16 Jan 2018
Potential Impact None Slight Moderate High
Time16/03Z 16/04Z 16/05Z 16/06Z 16/07Z 16/08Z 16/09Z 16/10Z 16/11Z 16/12Z 16/13Z 16/14Z 16/15Z
VIS9 10 10 10 10 10 8 7 9 8 9 10 7
CIG19 21 22 35 50 48 15 12 14 16 21 32 16
CoverOVCOVCOVCBKNBKNOVCBKNOVCOVCOVCOVCBKNBKN
FltCatMVFRMVFRMVFRVFRVFRVFRMVFRMVFRMVFRMVFRMVFRVFRMVFR
WX-SN-----------SN-SN-SN-SN-SN----
WDir210240240230190210280250240240240240210
WSpd8 9 8 6 4 4 4 12 12 14 13 12 10
WGst-- -- -- -- -- -- -- -- -- -- -- -- --
Raw hourly METARs
KCLE 160251Z 21008KT 9SM -SN BKN019 OVC025 M02/M06 A3030 RMK AO2 SLP272 P0000 60000 T10221056 53004
KCLE 160351Z 24009KT 10SM OVC021 M03/M06 A3030 RMK AO2 SNE23 SLP273 P0000 T10281056
KCLE 160451Z 24008KT 10SM BKN022 OVC029 M03/M07 A3032 RMK AO2 SLP280 T10331067 410221128
KCLE 160551Z 23006KT 10SM SCT020 SCT024 BKN035 M06/M08 A3032 RMK AO2 SLP279 4/003 60000 T10561083 11022 21056 50006
KCLE 160651Z 19004KT 10SM BKN050 M05/M07 A3033 RMK AO2 SLP284 T10501072
KCLE 160751Z 21004KT 10SM OVC048 M06/M08 A3035 RMK AO2 SLP290 T10611083
KCLE 160900Z 28004KT 8SM -SN BKN015 BKN040 BKN047 M07/M09 A3035 RMK AO2 P0000 T10721089
KCLE 160951Z 25012KT 7SM -SN OVC012 M06/M09 A3037 RMK AO2 SLP295 P0000 T10611089
KCLE 161051Z 24012KT 9SM -SN OVC014 M09/M12 A3039 RMK AO2 SLP302 P0000 T10891122
KCLE 161151Z 24014KT 8SM -SN OVC016 M10/M13 A3041 RMK AO2 SLP312 4/003 P0000 60000 70006 T11001133 11050 21100 53021
KCLE 161251Z 24013KT 9SM -SN OVC021 M12/M17 A3043 RMK AO2 SLP319 P0000 T11221167
KCLE 161351Z 24012KT 10SM FEW026 BKN032 M13/M17 A3044 RMK AO2 SNE17 SLP321 P0000 T11331172
KCLE 161501Z 21010KT 7SM FEW009 BKN016 M13/M17 A3046 RMK AO2 T11331172